createdAt,value
2022-08-26T00:00:41.196Z,9.60
2022-08-26T00:01:41.255Z,8.60
2022-08-26T00:02:41.183Z,8.60
2022-08-26T00:03:41.187Z,8.90
2022-08-26T00:04:41.181Z,8.20
2022-08-26T00:05:41.165Z,8.00
2022-08-26T00:06:42.371Z,7.80
2022-08-26T00:07:41.148Z,9.50
2022-08-26T00:08:41.129Z,8.10
2022-08-26T00:09:41.113Z,7.80
2022-08-26T00:10:41.097Z,8.40
2022-08-26T00:11:41.101Z,9.00
2022-08-26T00:12:41.120Z,9.30
2022-08-26T00:13:41.061Z,8.30
2022-08-26T00:14:41.092Z,9.00
2022-08-26T00:15:41.074Z,10.00
2022-08-26T00:16:48.026Z,9.40
2022-08-26T00:17:41.057Z,9.20
2022-08-26T00:18:41.038Z,9.80
2022-08-26T00:19:41.000Z,9.60
2022-08-26T00:20:41.002Z,9.00
2022-08-26T00:21:41.020Z,8.70
2022-08-26T00:22:40.980Z,8.20
2022-08-26T00:23:40.945Z,8.00
2022-08-26T00:24:41.010Z,8.30
2022-08-26T00:25:42.592Z,8.30
2022-08-26T00:26:41.491Z,9.20
2022-08-26T00:27:40.929Z,8.20
2022-08-26T00:28:41.170Z,8.30
2022-08-26T00:29:40.906Z,9.20
2022-08-26T00:30:40.918Z,8.70
2022-08-26T00:31:41.002Z,8.50
2022-08-26T00:32:40.924Z,8.60
2022-08-26T00:33:40.893Z,9.40
2022-08-26T00:34:40.858Z,8.60
2022-08-26T00:35:40.857Z,9.30
2022-08-26T00:36:40.978Z,9.40
2022-08-26T00:37:40.819Z,9.90
2022-08-26T00:38:40.833Z,9.70
2022-08-26T00:39:40.862Z,9.80
2022-08-26T00:40:40.842Z,9.10
2022-08-26T00:41:40.840Z,9.60
2022-08-26T00:42:40.790Z,8.80
2022-08-26T00:43:47.539Z,8.60
2022-08-26T00:44:40.775Z,8.60
2022-08-26T00:45:40.802Z,8.10
2022-08-26T00:46:45.020Z,8.80
2022-08-26T00:47:40.783Z,10.30
2022-08-26T00:48:40.759Z,10.60
2022-08-26T00:49:40.747Z,10.30
2022-08-26T00:50:40.714Z,8.80
2022-08-26T00:51:40.919Z,9.20
2022-08-26T00:52:40.713Z,9.70
2022-08-26T00:53:41.489Z,9.60
2022-08-26T00:54:42.350Z,10.00
2022-08-26T00:55:40.655Z,10.30
2022-08-26T00:56:40.672Z,10.20
2022-08-26T00:57:40.616Z,9.80
2022-08-26T00:58:40.643Z,9.70
2022-08-26T00:59:40.615Z,8.80
2022-08-26T01:00:40.644Z,9.20
2022-08-26T01:01:40.605Z,8.70
2022-08-26T01:02:40.924Z,9.00
2022-08-26T01:03:40.556Z,8.80
2022-08-26T01:04:40.569Z,10.90
2022-08-26T01:05:40.537Z,10.60
2022-08-26T01:06:40.565Z,9.80
2022-08-26T01:07:40.534Z,9.30
2022-08-26T01:08:40.767Z,9.20
2022-08-26T01:09:40.524Z,9.10
2022-08-26T01:10:40.760Z,9.20
2022-08-26T01:11:40.550Z,10.30
2022-08-26T01:12:40.515Z,9.70
2022-08-26T01:13:40.467Z,9.80
2022-08-26T01:14:40.497Z,9.20
2022-08-26T01:15:40.504Z,9.70
2022-08-26T01:16:40.506Z,9.90
2022-08-26T01:17:40.443Z,9.10
2022-08-26T01:18:40.425Z,9.10
2022-08-26T01:19:40.445Z,9.30
2022-08-26T01:20:40.411Z,10.10
2022-08-26T01:21:40.587Z,9.20
2022-08-26T01:22:40.406Z,9.80
2022-08-26T01:23:40.400Z,10.40
2022-08-26T01:24:40.376Z,9.20
2022-08-26T01:25:40.340Z,10.20
2022-08-26T01:26:40.381Z,9.40
2022-08-26T01:27:40.378Z,9.00
2022-08-26T01:28:40.315Z,9.50
2022-08-26T01:29:40.313Z,10.00
2022-08-26T01:30:40.341Z,8.90
2022-08-26T01:31:40.311Z,9.30
2022-08-26T01:32:40.312Z,10.00
2022-08-26T01:33:42.096Z,9.90
2022-08-26T01:34:40.313Z,9.70
2022-08-26T01:35:40.242Z,9.50
2022-08-26T01:36:40.260Z,10.30
2022-08-26T01:37:40.470Z,10.30
2022-08-26T01:38:40.248Z,12.10
2022-08-26T01:39:40.224Z,14.50
2022-08-26T01:40:40.215Z,12.60
2022-08-26T01:41:40.426Z,17.00
2022-08-26T01:42:40.254Z,13.90
2022-08-26T01:43:40.165Z,13.20
2022-08-26T01:44:40.186Z,17.80
2022-08-26T01:45:40.231Z,19.00
2022-08-26T01:46:40.181Z,20.30
2022-08-26T01:47:40.138Z,20.00
2022-08-26T01:48:40.146Z,20.70
2022-08-26T01:49:40.106Z,22.30
2022-08-26T01:50:40.149Z,24.10
2022-08-26T01:51:40.108Z,24.20
2022-08-26T01:52:40.115Z,25.60
2022-08-26T01:53:41.801Z,25.60
2022-08-26T01:54:40.105Z,25.30
2022-08-26T01:55:40.078Z,24.90
2022-08-26T01:56:40.086Z,24.80
2022-08-26T01:57:40.070Z,25.10
2022-08-26T01:58:40.045Z,26.40
2022-08-26T01:59:40.025Z,26.10
2022-08-26T02:00:40.086Z,25.20
2022-08-26T02:01:40.234Z,26.70
2022-08-26T02:02:40.001Z,26.70
2022-08-26T02:03:40.040Z,26.60
2022-08-26T02:04:40.043Z,27.70
2022-08-26T02:05:40.720Z,27.90
2022-08-26T02:06:39.968Z,29.00
2022-08-26T02:07:39.967Z,28.30
2022-08-26T02:08:39.979Z,30.30
2022-08-26T02:09:41.383Z,31.00
2022-08-26T02:10:39.910Z,31.50
2022-08-26T02:11:39.907Z,30.40
2022-08-26T02:12:40.623Z,30.20
2022-08-26T02:13:39.916Z,31.70
2022-08-26T02:14:43.752Z,30.10
2022-08-26T02:15:39.850Z,29.70
2022-08-26T02:16:39.983Z,34.30
2022-08-26T02:17:39.871Z,31.80
2022-08-26T02:18:40.084Z,35.90
2022-08-26T02:19:40.118Z,34.70
2022-08-26T02:20:39.864Z,32.00
2022-08-26T02:21:39.812Z,34.00
2022-08-26T02:22:39.791Z,31.60
2022-08-26T02:23:39.775Z,37.60
2022-08-26T02:24:39.793Z,31.30
2022-08-26T02:25:39.764Z,35.70
2022-08-26T02:26:39.779Z,31.40
2022-08-26T02:27:39.735Z,33.40
2022-08-26T02:28:39.788Z,30.70
2022-08-26T02:29:39.785Z,31.60
2022-08-26T02:30:39.984Z,33.60
2022-08-26T02:31:39.724Z,39.60
2022-08-26T02:32:40.088Z,41.20
2022-08-26T02:33:43.130Z,37.20
2022-08-26T02:34:39.674Z,34.60
2022-08-26T02:35:39.663Z,36.80
2022-08-26T02:36:39.705Z,35.20
2022-08-26T02:37:39.662Z,41.70
2022-08-26T02:38:39.759Z,49.40
2022-08-26T02:39:39.616Z,53.90
2022-08-26T02:40:39.633Z,47.20
2022-08-26T02:41:44.782Z,40.20
2022-08-26T02:42:40.309Z,54.00
2022-08-26T02:43:39.624Z,51.00
2022-08-26T02:44:39.598Z,55.30
2022-08-26T02:45:39.830Z,51.00
2022-08-26T02:46:39.930Z,48.70
2022-08-26T02:47:39.832Z,46.10
2022-08-26T02:48:39.543Z,60.60
2022-08-26T02:49:39.587Z,62.70
2022-08-26T02:50:39.516Z,56.50
2022-08-26T02:51:39.528Z,58.90
2022-08-26T02:52:39.502Z,59.70
2022-08-26T02:53:39.498Z,52.90
2022-08-26T02:54:39.476Z,55.40
2022-08-26T02:55:39.514Z,71.80
2022-08-26T02:56:39.470Z,65.90
2022-08-26T02:57:39.481Z,68.80
2022-08-26T02:58:39.465Z,67.70
2022-08-26T02:59:39.456Z,69.80
2022-08-26T03:00:39.461Z,70.50
2022-08-26T03:01:39.506Z,75.00
2022-08-26T03:02:39.381Z,73.60
2022-08-26T03:03:39.402Z,72.20
2022-08-26T03:04:39.631Z,64.50
2022-08-26T03:05:39.383Z,64.30
2022-08-26T03:06:39.408Z,75.90
2022-08-26T03:07:39.369Z,81.40
2022-08-26T03:08:39.338Z,77.30
2022-08-26T03:09:39.395Z,69.10
2022-08-26T03:10:39.326Z,66.60
2022-08-26T03:11:39.341Z,65.00
2022-08-26T03:12:39.317Z,68.60
2022-08-26T03:13:39.305Z,76.50
2022-08-26T03:14:39.283Z,75.70
2022-08-26T03:15:39.275Z,72.80
2022-08-26T03:16:39.267Z,76.20
2022-08-26T03:17:39.300Z,68.90
2022-08-26T03:18:39.269Z,67.80
2022-08-26T03:19:39.255Z,71.10
2022-08-26T03:20:39.214Z,84.40
2022-08-26T03:21:39.233Z,75.00
2022-08-26T03:22:39.248Z,72.10
2022-08-26T03:23:39.204Z,79.40
2022-08-26T03:24:39.199Z,74.40
2022-08-26T03:25:39.174Z,67.00
2022-08-26T03:26:39.196Z,67.00
2022-08-26T03:27:39.160Z,68.50
2022-08-26T03:28:39.146Z,69.20
2022-08-26T03:29:39.379Z,86.50
2022-08-26T03:30:39.130Z,71.30
2022-08-26T03:31:39.203Z,74.60
2022-08-26T03:32:39.119Z,79.00
2022-08-26T03:33:39.126Z,84.30
2022-08-26T03:34:39.136Z,77.50
2022-08-26T03:35:39.320Z,75.40
2022-08-26T03:36:39.071Z,78.00
2022-08-26T03:37:39.299Z,66.20
2022-08-26T03:38:39.068Z,73.40
2022-08-26T03:39:39.084Z,70.40
2022-08-26T03:40:39.039Z,66.90
2022-08-26T03:41:39.035Z,68.20
2022-08-26T03:42:39.025Z,64.20
2022-08-26T03:43:39.004Z,72.50
2022-08-26T03:44:42.245Z,74.10
2022-08-26T03:45:39.001Z,75.10
2022-08-26T03:46:39.042Z,70.80
2022-08-26T03:47:38.987Z,78.60
2022-08-26T03:48:38.986Z,80.70
2022-08-26T03:49:38.952Z,88.10
2022-08-26T03:50:38.931Z,86.20
2022-08-26T03:51:39.106Z,88.90
2022-08-26T03:52:43.563Z,77.70
2022-08-26T03:53:38.926Z,92.40
2022-08-26T03:54:39.120Z,95.10
2022-08-26T03:55:38.877Z,98.90
2022-08-26T03:56:38.873Z,98.40
2022-08-26T03:57:38.881Z,102.00
2022-08-26T03:58:38.856Z,102.40
2022-08-26T03:59:38.873Z,100.80
2022-08-26T04:00:38.826Z,94.60
2022-08-26T04:01:38.912Z,91.00
2022-08-26T04:02:38.900Z,96.10
2022-08-26T04:03:38.738Z,100.70
2022-08-26T04:04:38.778Z,94.80
2022-08-26T04:05:38.774Z,94.30
2022-08-26T04:06:38.709Z,98.60
2022-08-26T04:07:38.705Z,97.40
2022-08-26T04:08:38.806Z,102.40
2022-08-26T04:09:38.722Z,96.90
2022-08-26T04:10:38.697Z,103.60
2022-08-26T04:11:39.274Z,92.50
2022-08-26T04:12:38.722Z,84.10
2022-08-26T04:13:38.646Z,86.10
2022-08-26T04:14:38.637Z,91.80
2022-08-26T04:15:38.617Z,97.50
2022-08-26T04:16:38.597Z,91.50
2022-08-26T04:17:38.629Z,86.90
2022-08-26T04:18:40.600Z,84.50
2022-08-26T04:19:38.590Z,93.10
2022-08-26T04:20:38.566Z,96.30
2022-08-26T04:21:38.591Z,97.80
2022-08-26T04:22:38.539Z,100.30
2022-08-26T04:23:47.484Z,99.70
2022-08-26T04:24:38.502Z,95.00
2022-08-26T04:25:38.516Z,97.70
2022-08-26T04:26:39.503Z,100.40
2022-08-26T04:27:38.515Z,97.20
2022-08-26T04:28:38.494Z,91.00
2022-08-26T04:29:38.478Z,87.40
2022-08-26T04:30:38.451Z,89.70
2022-08-26T04:31:38.495Z,97.80
2022-08-26T04:32:38.438Z,93.60
2022-08-26T04:33:41.732Z,89.90
2022-08-26T04:34:38.455Z,90.00
2022-08-26T04:35:38.417Z,91.60
2022-08-26T04:36:38.402Z,90.90
2022-08-26T04:37:38.402Z,91.50
2022-08-26T04:38:38.370Z,87.30
2022-08-26T04:39:38.363Z,89.70
2022-08-26T04:40:38.379Z,89.40
2022-08-26T04:41:38.351Z,91.10
2022-08-26T04:42:38.350Z,88.50
2022-08-26T04:43:39.049Z,88.90
2022-08-26T04:44:38.311Z,91.00
2022-08-26T04:45:38.327Z,93.20
2022-08-26T04:46:39.765Z,89.00
2022-08-26T04:47:38.296Z,89.60
2022-08-26T04:48:38.275Z,89.80
2022-08-26T04:49:38.273Z,87.80
2022-08-26T04:50:38.249Z,84.90
2022-08-26T04:51:38.264Z,84.60
2022-08-26T04:52:38.215Z,87.20
2022-08-26T04:53:38.206Z,90.30
2022-08-26T04:54:38.193Z,88.00
2022-08-26T04:55:42.704Z,85.70
2022-08-26T04:56:38.225Z,83.00
2022-08-26T04:57:38.252Z,86.60
2022-08-26T04:58:38.171Z,81.30
2022-08-26T04:59:39.441Z,78.50
2022-08-26T05:00:38.365Z,80.80
2022-08-26T05:01:39.697Z,76.20
2022-08-26T05:02:38.134Z,76.20
2022-08-26T05:03:38.167Z,77.50
2022-08-26T05:04:38.110Z,82.30
2022-08-26T05:05:38.095Z,77.90
2022-08-26T05:06:38.082Z,79.90
2022-08-26T05:07:38.076Z,78.30
2022-08-26T05:08:38.080Z,75.70
2022-08-26T05:09:38.068Z,75.90
2022-08-26T05:10:38.059Z,75.60
2022-08-26T05:11:38.042Z,77.60
2022-08-26T05:12:38.000Z,74.50
2022-08-26T05:13:38.005Z,77.30
2022-08-26T05:14:38.034Z,70.50
2022-08-26T05:15:38.292Z,76.10
2022-08-26T05:16:40.399Z,75.40
2022-08-26T05:17:37.983Z,77.10
2022-08-26T05:18:37.980Z,70.60
2022-08-26T05:19:38.594Z,72.20
2022-08-26T05:20:37.950Z,72.70
2022-08-26T05:21:37.926Z,75.00
2022-08-26T05:22:37.913Z,70.50
2022-08-26T05:23:37.921Z,68.40
2022-08-26T05:24:37.900Z,73.80
2022-08-26T05:25:37.919Z,68.90
2022-08-26T05:26:37.856Z,72.00
2022-08-26T05:27:37.884Z,68.40
2022-08-26T05:28:37.877Z,71.90
2022-08-26T05:29:38.110Z,68.70
2022-08-26T05:30:37.816Z,68.40
2022-08-26T05:31:37.824Z,65.20
2022-08-26T05:32:37.805Z,62.20
2022-08-26T05:33:37.813Z,68.00
2022-08-26T05:34:37.777Z,67.70
2022-08-26T05:35:37.813Z,69.40
2022-08-26T05:36:37.863Z,67.50
2022-08-26T05:37:37.770Z,65.40
2022-08-26T05:38:37.769Z,67.40
2022-08-26T05:39:37.730Z,67.40
2022-08-26T05:40:37.799Z,67.90
2022-08-26T05:41:38.361Z,64.10
2022-08-26T05:42:37.678Z,63.40
2022-08-26T05:43:37.714Z,63.00
2022-08-26T05:44:53.829Z,63.00
2022-08-26T05:45:39.436Z,63.60
2022-08-26T05:46:37.719Z,63.40
2022-08-26T05:47:38.507Z,65.30
2022-08-26T05:48:37.648Z,62.90
2022-08-26T05:49:37.636Z,62.10
2022-08-26T05:50:37.602Z,63.40
2022-08-26T05:51:37.624Z,62.40
2022-08-26T05:52:37.584Z,63.70
2022-08-26T05:53:37.604Z,62.40
2022-08-26T05:54:37.588Z,62.80
2022-08-26T05:55:37.577Z,62.90
2022-08-26T05:56:37.530Z,63.90
2022-08-26T05:57:42.164Z,61.30
2022-08-26T05:58:37.533Z,59.60
2022-08-26T05:59:37.521Z,57.20
2022-08-26T06:00:37.491Z,62.40
2022-08-26T06:01:37.558Z,60.50
2022-08-26T06:02:37.577Z,61.70
2022-08-26T06:03:37.499Z,60.40
2022-08-26T06:04:37.455Z,59.70
2022-08-26T06:05:39.109Z,60.60
2022-08-26T06:06:37.448Z,59.50
2022-08-26T06:07:37.425Z,60.70
2022-08-26T06:08:37.445Z,59.50
2022-08-26T06:09:37.415Z,60.70
2022-08-26T06:10:37.418Z,55.30
2022-08-26T06:11:37.376Z,58.20
2022-08-26T06:12:37.376Z,56.00
2022-08-26T06:13:37.378Z,57.20
2022-08-26T06:14:37.357Z,57.10
2022-08-26T06:15:37.695Z,56.70
2022-08-26T06:16:37.577Z,55.40
2022-08-26T06:17:37.337Z,57.10
2022-08-26T06:18:37.284Z,56.60
2022-08-26T06:19:37.287Z,55.50
2022-08-26T06:20:37.295Z,57.40
2022-08-26T06:21:37.342Z,55.00
2022-08-26T06:22:37.307Z,53.70
2022-08-26T06:23:37.252Z,51.90
2022-08-26T06:24:37.239Z,53.30
2022-08-26T06:25:37.227Z,50.90
2022-08-26T06:26:37.251Z,49.40
2022-08-26T06:27:37.207Z,52.30
2022-08-26T06:28:37.183Z,51.50
2022-08-26T06:29:37.563Z,51.20
2022-08-26T06:30:37.173Z,50.90
2022-08-26T06:31:37.217Z,50.70
2022-08-26T06:32:37.191Z,49.30
2022-08-26T06:33:37.133Z,50.90
2022-08-26T06:34:37.152Z,51.60
2022-08-26T06:35:37.122Z,47.20
2022-08-26T06:36:37.357Z,49.60
2022-08-26T06:37:37.129Z,49.10
2022-08-26T06:38:37.139Z,50.90
2022-08-26T06:39:41.188Z,51.00
2022-08-26T06:40:37.079Z,50.10
2022-08-26T06:41:41.333Z,50.70
2022-08-26T06:42:37.111Z,50.10
2022-08-26T06:43:37.115Z,50.90
2022-08-26T06:44:37.042Z,48.90
2022-08-26T06:45:37.146Z,47.70
2022-08-26T06:46:37.067Z,48.00
2022-08-26T06:47:37.115Z,47.80
2022-08-26T06:48:36.995Z,46.30
2022-08-26T06:49:37.326Z,45.40
2022-08-26T06:50:37.021Z,46.40
2022-08-26T06:51:36.987Z,46.20
2022-08-26T06:52:36.998Z,46.70
2022-08-26T06:53:37.021Z,46.70
2022-08-26T06:54:36.962Z,46.40
2022-08-26T06:55:36.934Z,45.70
2022-08-26T06:56:36.980Z,45.50
2022-08-26T06:57:39.737Z,44.70
2022-08-26T06:58:36.960Z,44.50
2022-08-26T06:59:36.907Z,42.90
2022-08-26T07:00:36.884Z,44.00
2022-08-26T07:01:36.930Z,43.80
2022-08-26T07:02:37.133Z,42.80
2022-08-26T07:03:39.719Z,44.20
2022-08-26T07:04:36.861Z,42.90
2022-08-26T07:05:36.837Z,44.40
2022-08-26T07:06:36.962Z,43.90
2022-08-26T07:07:36.855Z,43.50
2022-08-26T07:08:36.880Z,41.20
2022-08-26T07:09:36.917Z,41.20
2022-08-26T07:10:36.827Z,42.40
2022-08-26T07:11:36.740Z,43.20
2022-08-26T07:12:36.857Z,41.60
2022-08-26T07:13:36.745Z,39.80
2022-08-26T07:14:36.859Z,40.70
2022-08-26T07:15:36.729Z,40.60
2022-08-26T07:16:36.686Z,39.00
2022-08-26T07:17:36.718Z,36.70
2022-08-26T07:18:36.740Z,39.20
2022-08-26T07:19:36.881Z,38.60
2022-08-26T07:20:36.698Z,37.90
2022-08-26T07:21:36.671Z,39.80
2022-08-26T07:22:36.673Z,37.20
2022-08-26T07:23:36.613Z,37.10
2022-08-26T07:24:36.666Z,40.70
2022-08-26T07:25:36.676Z,39.60
2022-08-26T07:26:36.600Z,40.60
2022-08-26T07:27:36.606Z,38.40
2022-08-26T07:28:36.581Z,39.10
2022-08-26T07:29:36.645Z,37.80
2022-08-26T07:30:36.695Z,37.40
2022-08-26T07:31:39.479Z,38.30
2022-08-26T07:32:36.588Z,39.80
2022-08-26T07:33:36.549Z,38.70
2022-08-26T07:34:36.559Z,40.30
2022-08-26T07:35:36.618Z,40.70
2022-08-26T07:36:36.547Z,40.10
2022-08-26T07:37:39.264Z,40.00
2022-08-26T07:38:36.571Z,38.40
2022-08-26T07:39:36.483Z,38.60
2022-08-26T07:40:36.490Z,38.40
2022-08-26T07:41:36.457Z,38.30
2022-08-26T07:42:36.438Z,39.40
2022-08-26T07:43:36.468Z,39.30
2022-08-26T07:44:36.440Z,38.70
2022-08-26T07:45:36.515Z,37.80
2022-08-26T07:46:36.436Z,38.70
2022-08-26T07:47:36.375Z,37.50
2022-08-26T07:48:36.494Z,37.20
2022-08-26T07:49:36.371Z,38.40
2022-08-26T07:50:50.266Z,35.90
2022-08-26T07:51:36.439Z,34.30
2022-08-26T07:52:36.434Z,35.20
2022-08-26T07:53:36.334Z,35.30
2022-08-26T07:54:36.375Z,35.50
2022-08-26T07:55:36.296Z,36.10
2022-08-26T07:56:36.358Z,34.10
2022-08-26T07:57:36.260Z,35.30
2022-08-26T07:58:36.283Z,33.60
2022-08-26T07:59:36.245Z,33.90
2022-08-26T08:00:36.273Z,33.70
2022-08-26T08:01:36.243Z,36.00
2022-08-26T08:02:36.218Z,34.60
2022-08-26T08:03:36.214Z,34.50
2022-08-26T08:04:36.301Z,34.80
2022-08-26T08:05:36.231Z,35.50
2022-08-26T08:06:37.117Z,34.40
2022-08-26T08:07:44.177Z,34.60
2022-08-26T08:08:36.167Z,33.70
2022-08-26T08:09:36.147Z,34.00
2022-08-26T08:10:36.189Z,34.40
2022-08-26T08:11:36.113Z,34.20
2022-08-26T08:12:36.417Z,34.40
2022-08-26T08:13:36.098Z,33.70
2022-08-26T08:14:36.102Z,33.30
2022-08-26T08:15:36.034Z,32.90
2022-08-26T08:16:39.105Z,31.50
2022-08-26T08:17:36.032Z,32.80
2022-08-26T08:18:36.040Z,32.80
2022-08-26T08:19:39.033Z,33.70
2022-08-26T08:20:36.024Z,31.80
2022-08-26T08:21:36.032Z,31.90
2022-08-26T08:22:36.007Z,31.10
2022-08-26T08:23:35.978Z,32.70
2022-08-26T08:24:35.956Z,31.30
2022-08-26T08:25:35.923Z,31.60
2022-08-26T08:26:36.178Z,30.40
2022-08-26T08:27:35.931Z,29.60
2022-08-26T08:28:35.904Z,27.80
2022-08-26T08:29:35.894Z,29.10
2022-08-26T08:30:35.934Z,28.50
2022-08-26T08:32:35.877Z,26.00
2022-08-26T08:33:36.579Z,27.40
2022-08-26T08:34:35.919Z,27.60
2022-08-26T08:35:35.829Z,27.60
2022-08-26T08:36:36.122Z,27.90
2022-08-26T08:37:35.827Z,27.50
2022-08-26T08:38:35.793Z,27.80
2022-08-26T08:39:36.044Z,27.70
2022-08-26T08:40:35.854Z,26.00
2022-08-26T08:41:35.791Z,25.80
2022-08-26T08:42:35.793Z,25.50
2022-08-26T08:43:37.505Z,26.60
2022-08-26T08:44:35.740Z,25.90
2022-08-26T08:45:37.062Z,27.90
2022-08-26T08:46:35.775Z,27.30
2022-08-26T08:47:35.701Z,26.40
2022-08-26T08:48:35.733Z,26.80
2022-08-26T08:49:35.694Z,27.00
2022-08-26T08:50:35.671Z,25.10
2022-08-26T08:51:35.664Z,26.80
2022-08-26T08:52:35.670Z,26.60
2022-08-26T08:53:35.626Z,26.40
2022-08-26T08:54:35.637Z,26.10
2022-08-26T08:55:35.653Z,26.40
2022-08-26T08:56:35.843Z,25.50
2022-08-26T08:57:35.612Z,25.00
2022-08-26T08:58:35.607Z,24.70
2022-08-26T08:59:35.568Z,22.90
2022-08-26T09:00:39.123Z,22.20
2022-08-26T09:01:35.625Z,22.90
2022-08-26T09:02:35.597Z,22.60
2022-08-26T09:03:35.556Z,25.70
2022-08-26T09:04:35.527Z,25.80
2022-08-26T09:05:37.631Z,25.20
2022-08-26T09:06:35.577Z,25.30
2022-08-26T09:07:36.687Z,25.30
2022-08-26T09:08:35.482Z,24.10
2022-08-26T09:09:35.504Z,24.30
2022-08-26T09:10:35.463Z,24.20
2022-08-26T09:11:35.456Z,25.90
2022-08-26T09:12:36.091Z,25.00
2022-08-26T09:13:35.443Z,22.80
2022-08-26T09:14:35.413Z,25.00
2022-08-26T09:15:35.399Z,24.40
2022-08-26T09:16:35.456Z,24.50
2022-08-26T09:17:35.406Z,25.30
2022-08-26T09:18:35.421Z,24.80
2022-08-26T09:19:35.398Z,24.40
2022-08-26T09:20:35.352Z,22.90
2022-08-26T09:21:35.357Z,22.50
2022-08-26T09:22:35.364Z,22.60
2022-08-26T09:23:35.846Z,23.40
2022-08-26T09:24:38.427Z,23.30
2022-08-26T09:25:35.308Z,22.10
2022-08-26T09:26:35.310Z,22.10
2022-08-26T09:27:35.306Z,21.40
2022-08-26T09:28:35.337Z,20.60
2022-08-26T09:29:35.249Z,21.20
2022-08-26T09:30:35.324Z,22.20
2022-08-26T09:31:35.486Z,21.40
2022-08-26T09:32:35.247Z,23.40
2022-08-26T09:33:35.232Z,22.00
2022-08-26T09:34:35.242Z,22.80
2022-08-26T09:35:35.187Z,20.40
2022-08-26T09:36:39.368Z,21.10
2022-08-26T09:37:35.252Z,19.30
2022-08-26T09:38:35.183Z,19.80
2022-08-26T09:39:35.159Z,19.00
2022-08-26T09:40:35.444Z,20.40
2022-08-26T09:41:35.167Z,19.10
2022-08-26T09:42:35.141Z,21.20
2022-08-26T09:43:35.142Z,21.00
2022-08-26T09:44:35.147Z,20.70
2022-08-26T09:45:35.103Z,21.60
2022-08-26T09:46:35.139Z,20.90
2022-08-26T09:47:35.092Z,19.60
2022-08-26T09:48:36.364Z,21.00
2022-08-26T09:49:36.316Z,20.40
2022-08-26T09:50:35.094Z,20.40
2022-08-26T09:51:35.063Z,20.70
2022-08-26T09:52:35.034Z,20.20
2022-08-26T09:53:35.032Z,19.90
2022-08-26T09:54:35.051Z,22.30
2022-08-26T09:55:35.002Z,20.50
2022-08-26T09:56:35.016Z,20.60
2022-08-26T09:57:34.973Z,21.20
2022-08-26T09:58:34.962Z,22.30
2022-08-26T09:59:35.003Z,21.70
2022-08-26T10:00:34.981Z,21.70
2022-08-26T10:01:35.018Z,21.60
2022-08-26T10:02:34.915Z,21.60
2022-08-26T10:03:35.199Z,19.80
2022-08-26T10:04:34.963Z,21.30
2022-08-26T10:05:34.915Z,21.40
2022-08-26T10:06:34.902Z,19.50
2022-08-26T10:07:34.883Z,19.80
2022-08-26T10:08:34.877Z,20.90
2022-08-26T10:09:34.861Z,20.30
2022-08-26T10:10:34.869Z,19.60
2022-08-26T10:11:34.855Z,18.40
2022-08-26T10:12:34.848Z,19.50
2022-08-26T10:13:34.827Z,21.80
2022-08-26T10:14:34.901Z,21.40
2022-08-26T10:15:35.098Z,20.30
2022-08-26T10:16:34.823Z,21.40
2022-08-26T10:17:34.778Z,21.90
2022-08-26T10:18:34.813Z,20.80
2022-08-26T10:19:41.788Z,20.40
2022-08-26T10:20:34.857Z,19.70
2022-08-26T10:21:34.726Z,19.80
2022-08-26T10:22:34.767Z,18.30
2022-08-26T10:23:34.735Z,19.30
2022-08-26T10:24:34.754Z,19.10
2022-08-26T10:25:34.721Z,18.00
2022-08-26T10:26:34.697Z,18.70
2022-08-26T10:27:34.933Z,19.30
2022-08-26T10:28:34.683Z,19.80
2022-08-26T10:29:34.673Z,19.90
2022-08-26T10:30:34.656Z,19.00
2022-08-26T10:31:40.338Z,19.90
2022-08-26T10:32:34.675Z,19.10
2022-08-26T10:33:34.627Z,18.80
2022-08-26T10:34:34.672Z,19.40
2022-08-26T10:35:34.616Z,18.10
2022-08-26T10:36:46.948Z,16.20
2022-08-26T10:37:34.584Z,18.00
2022-08-26T10:38:34.565Z,17.30
2022-08-26T10:39:34.565Z,17.60
2022-08-26T10:40:34.602Z,17.50
2022-08-26T10:41:34.537Z,18.00
2022-08-26T10:42:34.521Z,17.80
2022-08-26T10:43:34.505Z,19.10
2022-08-26T10:44:34.528Z,17.80
2022-08-26T10:45:34.578Z,17.90
2022-08-26T10:46:34.490Z,17.10
2022-08-26T10:47:34.496Z,17.90
2022-08-26T10:48:35.433Z,16.40
2022-08-26T10:49:34.452Z,15.60
2022-08-26T10:50:34.452Z,16.60
2022-08-26T10:51:34.457Z,16.40
2022-08-26T10:52:34.441Z,15.00
2022-08-26T10:53:34.521Z,14.80
2022-08-26T10:54:34.421Z,16.30
2022-08-26T10:55:34.786Z,15.00
2022-08-26T10:56:34.400Z,15.80
2022-08-26T10:57:34.400Z,15.80
2022-08-26T10:58:34.378Z,14.80
2022-08-26T10:59:34.334Z,14.30
2022-08-26T11:00:34.366Z,14.20
2022-08-26T11:01:34.377Z,14.20
2022-08-26T11:02:34.334Z,14.50
2022-08-26T11:03:34.334Z,17.00
2022-08-26T11:04:34.992Z,16.60
2022-08-26T11:05:34.288Z,17.60
2022-08-26T11:06:34.282Z,16.80
2022-08-26T11:07:34.258Z,16.10
2022-08-26T11:08:34.291Z,15.50
2022-08-26T11:09:34.241Z,16.10
2022-08-26T11:10:34.236Z,15.70
2022-08-26T11:11:34.257Z,14.00
2022-08-26T11:12:34.260Z,14.30
2022-08-26T11:13:35.442Z,13.40
2022-08-26T11:14:34.263Z,13.40
2022-08-26T11:15:34.194Z,14.10
2022-08-26T11:16:34.192Z,13.40
2022-08-26T11:17:34.163Z,13.40
2022-08-26T11:18:34.161Z,12.30
2022-08-26T11:19:57.126Z,12.80
2022-08-26T11:20:34.143Z,12.80
2022-08-26T11:21:34.156Z,12.60
2022-08-26T11:22:34.134Z,12.90
2022-08-26T11:23:34.097Z,12.50
2022-08-26T11:24:34.088Z,11.80
2022-08-26T11:25:34.126Z,13.00
2022-08-26T11:26:43.263Z,12.80
2022-08-26T11:27:34.090Z,11.50
2022-08-26T11:28:34.047Z,12.80
2022-08-26T11:29:34.063Z,11.80
2022-08-26T11:30:34.069Z,11.70
2022-08-26T11:31:34.058Z,11.30
2022-08-26T11:32:34.014Z,9.90
2022-08-26T11:33:33.995Z,9.90
2022-08-26T11:34:33.991Z,11.00
2022-08-26T11:35:33.990Z,9.70
2022-08-26T11:36:33.969Z,9.10
2022-08-26T11:37:33.985Z,8.50
2022-08-26T11:38:33.942Z,8.80
2022-08-26T11:39:36.922Z,8.60
2022-08-26T11:40:33.987Z,9.30
2022-08-26T11:41:33.935Z,8.30
2022-08-26T11:42:33.907Z,8.20
2022-08-26T11:43:33.917Z,8.20
2022-08-26T11:44:34.145Z,8.10
2022-08-26T11:45:33.962Z,8.40
2022-08-26T11:46:33.861Z,8.20
2022-08-26T11:47:33.857Z,8.30
2022-08-26T11:48:33.873Z,8.00
2022-08-26T11:49:33.870Z,8.40
2022-08-26T11:50:33.852Z,7.90
2022-08-26T11:51:35.962Z,8.00
2022-08-26T11:52:33.835Z,8.00
2022-08-26T11:53:33.850Z,7.10
2022-08-26T11:54:35.711Z,6.80
2022-08-26T11:55:33.816Z,8.20
2022-08-26T11:56:33.786Z,7.90
2022-08-26T11:57:33.770Z,7.40
2022-08-26T11:58:33.741Z,7.80
2022-08-26T12:00:34.492Z,8.40
2022-08-26T12:01:33.722Z,8.00
2022-08-26T12:02:33.705Z,8.10
2022-08-26T12:03:33.789Z,8.00
2022-08-26T12:04:33.838Z,7.70
2022-08-26T12:05:33.698Z,7.20
2022-08-26T12:06:35.422Z,6.90
2022-08-26T12:07:33.670Z,6.60
2022-08-26T12:08:33.658Z,6.10
2022-08-26T12:09:33.650Z,5.80
2022-08-26T12:10:33.714Z,6.40
2022-08-26T12:11:33.653Z,5.80
2022-08-26T12:12:35.226Z,6.90
2022-08-26T12:13:33.598Z,6.50
2022-08-26T12:14:33.643Z,6.10
2022-08-26T12:15:33.590Z,5.80
2022-08-26T12:16:33.605Z,6.50
2022-08-26T12:17:33.586Z,6.20
2022-08-26T12:18:33.555Z,5.80
2022-08-26T12:19:33.553Z,6.10
2022-08-26T12:20:33.515Z,6.40
2022-08-26T12:21:34.737Z,5.70
2022-08-26T12:22:33.521Z,5.60
2022-08-26T12:23:33.541Z,5.50
2022-08-26T12:24:33.492Z,5.60
2022-08-26T12:25:36.263Z,5.50
2022-08-26T12:26:33.465Z,5.60
2022-08-26T12:27:33.470Z,5.60
2022-08-26T12:28:33.428Z,5.20
2022-08-26T12:29:33.439Z,5.60
2022-08-26T12:30:33.445Z,6.50
2022-08-26T12:31:33.464Z,5.60
2022-08-26T12:32:33.481Z,6.20
2022-08-26T12:33:33.444Z,5.80
2022-08-26T12:34:33.473Z,6.50
2022-08-26T12:35:33.402Z,5.50
2022-08-26T12:36:33.366Z,6.00
2022-08-26T12:37:33.406Z,5.30
2022-08-26T12:38:33.354Z,5.70
2022-08-26T12:39:33.338Z,5.70
2022-08-26T12:40:33.382Z,5.20
2022-08-26T12:41:33.342Z,5.20
2022-08-26T12:42:33.314Z,5.10
2022-08-26T12:43:33.318Z,5.60
2022-08-26T12:44:33.354Z,5.00
2022-08-26T12:45:33.342Z,5.80
2022-08-26T12:46:33.282Z,5.90
2022-08-26T12:47:42.492Z,5.80
2022-08-26T12:48:33.251Z,5.50
2022-08-26T12:49:33.262Z,5.90
2022-08-26T12:50:33.213Z,6.50
2022-08-26T12:51:33.214Z,5.90
2022-08-26T12:52:33.204Z,5.70
2022-08-26T12:53:33.235Z,5.70
2022-08-26T12:54:33.187Z,5.70
2022-08-26T12:55:33.200Z,5.20
2022-08-26T12:56:33.158Z,5.80
2022-08-26T12:57:33.159Z,5.30
2022-08-26T12:58:33.163Z,5.50
2022-08-26T12:59:33.158Z,5.70